Time;durP1;ratioP1;P1;durP2;ratioP2;P2;SDS_P1;SDS_P2;PMS_P1;PMS_P2;Temp;Humidity;BMP_temperature;BMP_pressure;BME280_temperature;BME280_humidity;BME280_pressure;Samples;Min_cycle;Max_cycle;Signal;HPM_P1;HPM_P2
2021/11/26 00:01:44;;;;;;;13.68;8.07;;;;;;;2.90;100.00;94904.38;5089880;28;20040;-69
2021/11/26 00:04:11;;;;;;;12.68;6.88;;;;;;;2.92;100.00;94900.66;5086090;28;20067;-69
2021/11/26 00:06:38;;;;;;;13.18;6.40;;;;;;;2.85;100.00;94890.28;5087737;28;23029;-67
2021/11/26 00:09:05;;;;;;;18.13;8.35;;;;;;;2.91;100.00;94887.97;5087724;28;20031;-69
2021/11/26 00:11:32;;;;;;;16.83;7.80;;;;;;;2.89;100.00;94879.66;5084813;28;20040;-68
2021/11/26 00:16:38;;;;;;;16.48;7.40;;;;;;;2.84;100.00;94873.25;5087356;28;20512;-68
2021/11/26 00:19:07;;;;;;;16.13;8.60;;;;;;;2.95;100.00;94894.34;5085955;28;20138;-69
2021/11/26 00:21:37;;;;;;;13.88;7.68;;;;;;;2.86;100.00;94881.59;5083984;28;20047;-68
2021/11/26 00:24:06;;;;;;;14.40;7.15;;;;;;;2.97;100.00;94889.81;5090885;28;20473;-68
2021/11/26 00:26:33;;;;;;;13.98;8.15;;;;;;;2.97;100.00;94892.38;5089331;28;20402;-68
2021/11/26 00:29:00;;;;;;;17.83;7.72;;;;;;;2.93;100.00;94891.94;5071616;28;20489;-68
2021/11/26 00:31:27;;;;;;;14.07;7.10;;;;;;;2.96;100.00;94898.53;5089535;28;20032;-68
2021/11/26 00:33:54;;;;;;;14.25;8.00;;;;;;;2.97;100.00;94897.53;5091569;28;20124;-68
2021/11/26 00:36:20;;;;;;;17.27;9.18;;;;;;;2.94;100.00;94897.91;5086469;28;20036;-69
2021/11/26 00:38:47;;;;;;;14.43;7.53;;;;;;;2.98;100.00;94888.84;5072863;28;20602;-68
2021/11/26 00:41:14;;;;;;;16.40;8.10;;;;;;;2.98;100.00;94857.97;5084969;28;20561;-67
2021/11/26 00:43:43;;;;;;;15.95;8.10;;;;;;;2.97;100.00;94875.19;5088366;28;20424;-68
2021/11/26 00:46:12;;;;;;;15.70;8.57;;;;;;;2.94;100.00;94883.25;5088891;28;20047;-68
2021/11/26 00:48:39;;;;;;;16.73;8.02;;;;;;;2.90;100.00;94887.19;5085426;28;20443;-68
2021/11/26 00:51:06;;;;;;;21.88;8.60;;;;;;;2.86;100.00;94881.59;5085139;28;20466;-69
2021/11/26 00:53:33;;;;;;;13.45;7.40;;;;;;;2.85;100.00;94872.28;5088959;28;20295;-68
2021/11/26 00:56:00;;;;;;;18.38;8.23;;;;;;;2.79;100.00;94875.59;5089825;28;20048;-68
2021/11/26 00:58:27;;;;;;;17.65;8.25;;;;;;;2.89;100.00;94889.94;5091404;28;20413;-68
2021/11/26 01:00:54;;;;;;;17.05;7.93;;;;;;;2.85;100.00;94880.00;5073675;28;20059;-68
2021/11/26 01:03:22;;;;;;;17.77;8.30;;;;;;;2.80;100.00;94873.81;5084875;28;20043;-68
2021/11/26 01:05:50;;;;;;;16.95;7.25;;;;;;;2.81;100.00;94862.53;5086890;28;20047;-68
2021/11/26 01:08:18;;;;;;;17.88;8.13;;;;;;;2.78;100.00;94848.25;5084169;28;20044;-67
2021/11/26 01:10:46;;;;;;;14.65;7.78;;;;;;;2.78;100.00;94847.47;5084558;28;20159;-68
2021/11/26 01:13:14;;;;;;;16.58;8.07;;;;;;;2.76;100.00;94842.50;5084320;28;20475;-67
2021/11/26 01:15:43;;;;;;;15.95;7.70;;;;;;;2.76;100.00;94834.78;5084234;28;20074;-67
2021/11/26 01:18:14;;;;;;;14.55;7.55;;;;;;;2.75;100.00;94838.31;5085239;28;20046;-67
2021/11/26 01:20:42;;;;;;;15.90;8.80;;;;;;;2.70;100.00;94827.78;5088874;28;20056;-68
2021/11/26 01:23:09;;;;;;;16.85;7.78;;;;;;;2.78;100.00;94827.69;5086392;28;20118;-68
2021/11/26 01:25:36;;;;;;;21.35;7.72;;;;;;;2.79;100.00;94824.16;5084827;28;20040;-68
2021/11/26 01:28:03;;;;;;;15.48;7.95;;;;;;;2.78;100.00;94830.25;5093344;28;20517;-69
2021/11/26 01:30:44;;;;;;;13.23;5.32;;;;;;;2.62;100.00;94797.84;5085515;28;20051;-69
2021/11/26 01:33:13;;;;;;;15.32;8.20;;;;;;;2.72;100.00;94818.13;5091992;28;20044;-69
2021/11/26 01:35:41;;;;;;;18.70;8.63;;;;;;;2.75;100.00;94812.59;5087448;28;20052;-68
2021/11/26 01:38:09;;;;;;;14.38;7.40;;;;;;;2.71;100.00;94811.38;5084929;28;20562;-69
2021/11/26 01:40:40;;;;;;;17.80;8.52;;;;;;;2.73;100.00;94794.00;5090378;28;20032;-69
2021/11/26 01:43:09;;;;;;;14.15;8.15;;;;;;;2.59;100.00;94763.97;5090902;28;20046;-69
2021/11/26 01:45:46;;;;;;;16.25;7.63;;;;;;;2.64;100.00;94774.53;5089559;28;20544;-68
2021/11/26 01:48:14;;;;;;;15.95;7.18;;;;;;;2.71;100.00;94775.38;5088082;28;20047;-69
2021/11/26 01:50:41;;;;;;;21.38;9.68;;;;;;;2.69;100.00;94772.19;5070176;28;20517;-68
2021/11/26 01:53:08;;;;;;;12.98;6.55;;;;;;;2.66;100.00;94777.69;5089882;28;20054;-68
2021/11/26 01:55:36;;;;;;;17.45;8.00;;;;;;;2.72;100.00;94777.00;5083131;28;20048;-69
2021/11/26 01:58:03;;;;;;;16.80;8.10;;;;;;;2.65;100.00;94765.84;5085549;28;20404;-69
2021/11/26 02:00:33;;;;;;;13.35;7.38;;;;;;;2.65;100.00;94760.69;5084454;28;20052;-69
2021/11/26 02:03:02;;;;;;;14.98;7.50;;;;;;;2.57;100.00;94753.09;5083876;28;20420;-69
2021/11/26 02:05:29;;;;;;;16.17;7.43;;;;;;;2.64;100.00;94753.94;5096812;28;20581;-69
2021/11/26 02:07:56;;;;;;;14.18;7.45;;;;;;;2.52;100.00;94724.56;5092706;28;20469;-69
2021/11/26 02:10:24;;;;;;;13.32;6.47;;;;;;;2.65;100.00;94743.50;5090843;28;20047;-69
2021/11/26 02:12:52;;;;;;;18.45;8.32;;;;;;;2.61;100.00;94737.13;5090947;28;20094;-69
2021/11/26 02:15:25;;;;;;;14.68;6.68;;;;;;;2.63;100.00;94736.94;5092129;28;20044;-69
2021/11/26 02:17:54;;;;;;;16.50;7.63;;;;;;;2.61;100.00;94744.03;5092105;28;20044;-68
2021/11/26 02:20:24;;;;;;;16.58;8.63;;;;;;;2.51;100.00;94728.13;5076998;28;20040;-69
2021/11/26 02:22:52;;;;;;;17.92;9.02;;;;;;;2.61;100.00;94741.44;5093750;28;20058;-68
2021/11/26 02:25:20;;;;;;;18.77;8.45;;;;;;;2.65;100.00;94734.97;5090556;28;20405;-69
2021/11/26 02:27:48;;;;;;;18.33;9.10;;;;;;;2.62;100.00;94740.47;5095586;28;20046;-68
2021/11/26 02:30:18;;;;;;;20.08;9.93;;;;;;;2.62;100.00;94735.34;5085902;28;20055;-68
2021/11/26 02:32:54;;;;;;;19.92;9.75;;;;;;;2.64;100.00;94728.22;5087423;28;20445;-68
2021/11/26 02:35:23;;;;;;;19.50;8.98;;;;;;;2.60;100.00;94727.03;5088309;28;20122;-68
2021/11/26 02:37:50;;;;;;;19.40;9.80;;;;;;;2.55;100.00;94708.78;5090736;28;20410;-68
2021/11/26 02:40:20;;;;;;;21.83;9.73;;;;;;;2.60;100.00;94714.16;5092332;28;20089;-68
2021/11/26 02:42:49;;;;;;;19.88;9.02;;;;;;;2.51;100.00;94702.41;5090952;28;20118;-68
2021/11/26 02:45:18;;;;;;;21.20;9.32;;;;;;;2.58;100.00;94723.84;5090859;28;20123;-68
2021/11/26 02:47:47;;;;;;;20.85;9.43;;;;;;;2.55;100.00;94719.06;5087791;28;20040;-68
2021/11/26 02:50:16;;;;;;;20.02;10.05;;;;;;;2.60;100.00;94714.94;5090520;28;20045;-68
2021/11/26 02:52:44;;;;;;;21.63;10.25;;;;;;;2.56;100.00;94706.03;5091370;28;20118;-68
2021/11/26 02:55:15;;;;;;;23.85;10.88;;;;;;;2.60;100.00;94706.44;5086631;28;20044;-68
2021/11/26 02:57:42;;;;;;;22.08;10.15;;;;;;;2.60;100.00;94701.31;5072389;28;20048;-69
2021/11/26 03:00:12;;;;;;;21.63;11.57;;;;;;;2.58;100.00;94687.84;5081630;28;20421;-68
2021/11/26 03:02:39;;;;;;;25.50;10.57;;;;;;;2.67;100.00;94689.31;5085968;28;20429;-68
2021/11/26 03:05:07;;;;;;;22.35;10.80;;;;;;;2.61;100.00;94690.03;5091275;28;20466;-68
2021/11/26 03:07:34;;;;;;;17.25;9.07;;;;;;;2.56;100.00;94679.53;5089393;28;20036;-68
2021/11/26 03:10:01;;;;;;;26.83;11.02;;;;;;;2.59;100.00;94686.84;5091394;28;20036;-68
2021/11/26 03:12:28;;;;;;;18.63;8.75;;;;;;;2.62;100.00;94678.78;5086724;28;20047;-69
2021/11/26 03:14:55;;;;;;;23.25;9.95;;;;;;;2.59;100.00;94671.41;5088190;28;20060;-68
2021/11/26 03:17:24;;;;;;;21.80;9.50;;;;;;;2.62;100.00;94668.47;5085952;28;20115;-69
2021/11/26 03:19:51;;;;;;;23.30;10.35;;;;;;;2.64;100.00;94661.38;5085801;28;20044;-69
2021/11/26 03:22:19;;;;;;;24.65;10.80;;;;;;;2.66;100.00;94654.28;5084793;28;20032;-69
2021/11/26 03:24:46;;;;;;;20.50;10.30;;;;;;;2.63;100.00;94657.22;5087612;28;20067;-69
2021/11/26 03:27:13;;;;;;;18.52;9.98;;;;;;;2.61;100.00;94659.16;5088505;28;20044;-69
2021/11/26 03:29:41;;;;;;;21.50;10.27;;;;;;;2.66;100.00;94664.56;5086136;28;20047;-69
2021/11/26 03:32:08;;;;;;;20.23;10.38;;;;;;;2.62;100.00;94663.34;5084996;28;20122;-68
2021/11/26 03:34:35;;;;;;;27.45;11.35;;;;;;;2.57;100.00;94650.25;5092317;28;20044;-67
2021/11/26 03:37:02;;;;;;;24.80;11.57;;;;;;;2.63;100.00;94659.81;5086934;28;20122;-68
2021/11/26 03:39:29;;;;;;;18.38;9.60;;;;;;;2.60;100.00;94655.03;5089253;28;20047;-68
2021/11/26 03:41:56;;;;;;;20.02;11.05;;;;;;;2.62;100.00;94653.06;5093726;28;20054;-68
2021/11/26 03:44:23;;;;;;;19.55;8.60;;;;;;;2.49;100.00;94644.25;5099294;28;20042;-68
2021/11/26 03:46:50;;;;;;;19.92;8.48;;;;;;;2.62;100.00;94655.63;5093327;28;20039;-68
2021/11/26 03:49:16;;;;;;;17.50;8.15;;;;;;;2.62;100.00;94648.69;5093390;28;20050;-68
2021/11/26 03:51:43;;;;;;;12.55;7.72;;;;;;;2.56;100.00;94648.66;5074263;28;20496;-68
2021/11/26 03:54:10;;;;;;;15.63;7.93;;;;;;;2.52;100.00;94647.44;5088128;28;20050;-67
2021/11/26 03:56:37;;;;;;;20.83;8.15;;;;;;;2.51;100.00;94651.78;5094792;28;20152;-68
2021/11/26 03:59:06;;;;;;;16.95;7.85;;;;;;;2.52;100.00;94647.44;5089424;28;20071;-68
2021/11/26 04:01:36;;;;;;;11.85;6.65;;;;;;;2.52;100.00;94642.28;5084654;28;20455;-67
2021/11/26 04:04:03;;;;;;;13.32;7.38;;;;;;;2.32;100.00;94617.19;5086395;28;20063;-68
2021/11/26 04:06:30;;;;;;;18.65;8.02;;;;;;;2.54;100.00;94637.75;5087079;28;20039;-68
2021/11/26 04:08:57;;;;;;;22.63;6.38;;;;;;;2.49;100.00;94628.81;5091165;28;20036;-68
2021/11/26 04:11:25;;;;;;;15.25;8.02;;;;;;;2.52;100.00;94616.56;5092174;28;20043;-68
2021/11/26 04:13:53;;;;;;;14.45;8.10;;;;;;;2.45;100.00;94596.75;5090487;28;20413;-67
2021/11/26 04:16:20;;;;;;;15.43;8.05;;;;;;;2.53;100.00;94587.31;5088326;28;20085;-67
2021/11/26 04:18:47;;;;;;;18.80;9.93;;;;;;;2.48;100.00;94586.13;5090113;28;20042;-67
2021/11/26 04:21:14;;;;;;;21.02;8.50;;;;;;;2.47;100.00;94586.31;5090877;28;20516;-68
2021/11/26 04:23:42;;;;;;;16.10;8.45;;;;;;;2.52;100.00;94596.00;5070257;28;20048;-67
2021/11/26 04:26:09;;;;;;;18.67;9.55;;;;;;;2.31;100.00;94543.66;5087620;28;20036;-67
2021/11/26 04:28:35;;;;;;;19.27;9.20;;;;;;;2.60;100.00;94583.03;5089494;28;20044;-67
2021/11/26 04:31:03;;;;;;;22.38;9.95;;;;;;;2.44;100.00;94561.75;5085242;28;20051;-68
2021/11/26 04:33:33;;;;;;;14.93;8.48;;;;;;;2.49;100.00;94577.41;5089937;28;20040;-68
2021/11/26 04:36:01;;;;;;;19.48;9.77;;;;;;;2.45;100.00;94570.28;5085077;28;20143;-68
2021/11/26 04:38:28;;;;;;;21.63;10.68;;;;;;;2.47;100.00;94584.50;5090945;28;20036;-68
2021/11/26 04:40:55;;;;;;;19.27;10.40;;;;;;;2.37;100.00;94578.88;5085296;28;20119;-69
2021/11/26 04:43:23;;;;;;;22.88;9.60;;;;;;;2.35;100.00;94570.56;5091681;28;20035;-67
2021/11/26 04:45:52;;;;;;;25.52;11.23;;;;;;;2.51;100.00;94581.59;5075807;28;20039;-68
2021/11/26 04:48:21;;;;;;;24.00;9.55;;;;;;;2.45;100.00;94591.63;5093919;28;20044;-68
2021/11/26 04:50:49;;;;;;;23.88;10.48;;;;;;;2.44;100.00;94600.31;5090511;28;20075;-68
2021/11/26 04:53:16;;;;;;;28.35;11.07;;;;;;;2.43;100.00;94588.44;5091252;28;20036;-68
2021/11/26 04:55:44;;;;;;;25.55;11.27;;;;;;;2.44;100.00;94597.72;5089078;28;20040;-68
2021/11/26 04:58:11;;;;;;;20.80;9.40;;;;;;;2.43;100.00;94603.06;5072268;28;20127;-67
2021/11/26 05:00:39;;;;;;;26.80;10.35;;;;;;;2.48;100.00;94600.72;5089186;28;20032;-69
2021/11/26 05:03:06;;;;;;;22.73;10.55;;;;;;;2.47;100.00;94589.66;5089807;28;20040;-68
2021/11/26 05:05:34;;;;;;;25.67;10.88;;;;;;;2.44;100.00;94590.03;5091378;28;20044;-68
2021/11/26 05:08:01;;;;;;;24.85;10.38;;;;;;;2.45;100.00;94591.63;5090050;28;20122;-68
2021/11/26 05:10:30;;;;;;;22.67;9.80;;;;;;;2.46;100.00;94588.06;5067624;28;20396;-68
2021/11/26 05:12:58;;;;;;;17.33;9.45;;;;;;;2.42;100.00;94586.84;5093980;28;20063;-68
2021/11/26 05:15:29;;;;;;;22.35;9.82;;;;;;;2.51;100.00;94584.94;5084904;28;20102;-68
2021/11/26 05:17:59;;;;;;;20.80;9.55;;;;;;;2.45;100.00;94576.19;5090118;28;20044;-68
2021/11/26 05:20:28;;;;;;;21.13;10.13;;;;;;;2.41;100.00;94564.72;5089084;28;20050;-68
2021/11/26 05:22:55;;;;;;;22.58;9.52;;;;;;;2.45;100.00;94555.63;5085103;28;20115;-68
2021/11/26 05:25:23;;;;;;;21.25;9.52;;;;;;;2.42;100.00;94530.28;5086174;28;20043;-68
2021/11/26 05:27:51;;;;;;;21.05;10.57;;;;;;;2.44;100.00;94525.75;5090537;28;20038;-68
2021/11/26 05:30:18;;;;;;;26.83;11.98;;;;;;;2.51;100.00;94532.75;5088554;28;20394;-68
2021/11/26 05:32:47;;;;;;;20.35;10.15;;;;;;;2.51;100.00;94530.16;5074145;28;20048;-68
2021/11/26 05:35:15;;;;;;;20.55;10.07;;;;;;;2.47;100.00;94509.97;5086434;28;20043;-68
2021/11/26 05:37:42;;;;;;;22.25;10.32;;;;;;;2.47;100.00;94512.53;5093316;28;20047;-67
2021/11/26 05:40:12;;;;;;;21.42;10.77;;;;;;;2.52;100.00;94529.97;5068555;28;20055;-68
2021/11/26 05:42:39;;;;;;;21.92;9.25;;;;;;;2.48;100.00;94529.56;5082863;28;20044;-68
2021/11/26 05:45:08;;;;;;;19.73;10.13;;;;;;;2.51;100.00;94537.88;5084540;28;20040;-67
2021/11/26 05:47:35;;;;;;;36.97;15.43;;;;;;;2.45;100.00;94524.00;5085743;28;20044;-68
2021/11/26 05:50:08;;;;;;;31.40;16.00;;;;;;;2.53;100.00;94525.63;5086302;28;20512;-69
2021/11/26 05:52:36;;;;;;;35.00;17.60;;;;;;;2.54;100.00;94519.47;5087895;28;20067;-68
2021/11/26 05:55:06;;;;;;;30.15;15.15;;;;;;;2.45;100.00;94493.94;5084313;28;20064;-68
2021/11/26 05:57:33;;;;;;;43.28;15.90;;;;;;;2.45;100.00;94504.22;5085432;28;21432;-68
2021/11/26 06:00:01;;;;;;;42.05;18.63;;;;;;;2.61;100.00;94513.41;5081860;28;20528;-69
2021/11/26 06:02:30;;;;;;;41.05;18.20;;;;;;;2.59;100.00;94509.44;5083991;28;20048;-69
2021/11/26 06:04:57;;;;;;;33.85;17.20;;;;;;;2.67;100.00;94522.16;5085455;28;20528;-69
2021/11/26 06:07:24;;;;;;;29.05;13.93;;;;;;;2.65;100.00;94513.84;5087166;28;20524;-69
2021/11/26 06:09:51;;;;;;;38.53;16.48;;;;;;;2.73;100.00;94507.75;5092180;28;20521;-68
2021/11/26 06:12:18;;;;;;;31.05;15.85;;;;;;;2.77;100.00;94496.88;5084676;28;20040;-69
2021/11/26 06:14:45;;;;;;;32.28;13.98;;;;;;;2.71;100.00;94469.34;5086185;28;22676;-69
2021/11/26 06:17:12;;;;;;;35.55;16.55;;;;;;;2.75;100.00;94473.13;5078349;28;20054;-68
2021/11/26 06:19:39;;;;;;;31.33;14.40;;;;;;;2.78;100.00;94467.59;5082071;28;20079;-69
2021/11/26 06:22:06;;;;;;;37.35;18.40;;;;;;;2.67;100.00;94460.44;5087171;28;20166;-68
2021/11/26 06:24:33;;;;;;;31.58;15.80;;;;;;;2.83;100.00;94470.41;5083488;28;20406;-69
2021/11/26 06:27:00;;;;;;;30.80;16.58;;;;;;;2.92;100.00;94467.66;5083298;28;20044;-69
2021/11/26 06:29:27;;;;;;;27.63;14.50;;;;;;;2.98;100.00;94466.91;5087314;28;20043;-70
2021/11/26 06:31:54;;;;;;;54.03;21.65;;;;;;;2.91;100.00;94473.78;5082722;28;20501;-69
2021/11/26 06:34:21;;;;;;;51.38;25.08;;;;;;;2.90;100.00;94459.34;5090666;28;20032;-70
2021/11/26 06:36:48;;;;;;;37.65;16.15;;;;;;;2.93;100.00;94469.25;5089416;28;20047;-69
2021/11/26 06:39:15;;;;;;;30.40;15.10;;;;;;;3.05;100.00;94489.09;5093617;28;20067;-70
2021/11/26 06:41:42;;;;;;;41.30;14.82;;;;;;;2.93;100.00;94474.41;5088423;28;20538;-69
2021/11/26 06:44:09;;;;;;;34.10;17.05;;;;;;;2.98;100.00;94487.47;5089642;28;20042;-69
2021/11/26 06:46:36;;;;;;;39.83;16.88;;;;;;;2.91;100.00;94476.38;5086198;28;20425;-69
2021/11/26 06:49:03;;;;;;;41.85;19.75;;;;;;;3.00;100.00;94490.66;5086727;28;20040;-69
2021/11/26 06:51:30;;;;;;;38.47;17.10;;;;;;;2.96;100.00;94494.59;5070445;28;20532;-69
2021/11/26 06:53:58;;;;;;;35.67;12.70;;;;;;;2.98;100.00;94492.63;5084716;28;20420;-70
2021/11/26 06:56:25;;;;;;;34.83;14.55;;;;;;;2.97;100.00;94491.84;5089555;28;20416;-70
2021/11/26 06:58:55;;;;;;;34.22;15.38;;;;;;;2.90;100.00;94460.16;5086442;28;20078;-69
2021/11/26 07:01:22;;;;;;;39.58;17.08;;;;;;;2.97;100.00;94462.72;5087724;28;20036;-71
2021/11/26 07:03:49;;;;;;;34.25;14.82;;;;;;;2.99;100.00;94464.13;5069723;28;20429;-70
2021/11/26 07:06:19;;;;;;;41.03;17.67;;;;;;;2.87;100.00;94445.88;5096669;28;20632;-70
2021/11/26 07:08:46;;;;;;;30.63;14.38;;;;;;;2.99;100.00;94453.03;5095709;28;20035;-70
2021/11/26 07:11:13;;;;;;;38.70;17.20;;;;;;;2.97;100.00;94444.72;5087422;28;20058;-69
2021/11/26 07:13:40;;;;;;;31.73;16.20;;;;;;;2.96;100.00;94432.84;5089936;28;20123;-70
2021/11/26 07:16:07;;;;;;;32.47;15.80;;;;;;;3.00;100.00;94421.97;5064183;28;20060;-70
2021/11/26 07:18:34;;;;;;;30.95;15.85;;;;;;;3.01;100.00;94425.34;5065863;28;20041;-69
2021/11/26 07:21:01;;;;;;;36.65;17.55;;;;;;;2.96;100.00;94422.56;5065163;28;20516;-70
2021/11/26 07:23:28;;;;;;;26.05;13.10;;;;;;;3.05;100.00;94426.53;5065379;28;20039;-70
2021/11/26 07:25:55;;;;;;;31.40;14.93;;;;;;;3.05;100.00;94411.09;5066158;28;20074;-70
2021/11/26 07:28:24;;;;;;;26.75;12.68;;;;;;;3.00;100.00;94403.19;5064624;28;20813;-70
2021/11/26 07:30:51;;;;;;;19.52;10.35;;;;;;;3.06;100.00;94407.53;5062412;28;20431;-70
2021/11/26 07:33:18;;;;;;;23.70;12.40;;;;;;;3.00;100.00;94383.38;5063315;28;20421;-69
2021/11/26 07:35:45;;;;;;;23.17;11.63;;;;;;;2.99;100.00;94381.00;5065395;28;20454;-70
2021/11/26 07:38:11;;;;;;;21.13;10.55;;;;;;;2.96;100.00;94383.97;5064684;28;20127;-70
2021/11/26 07:40:39;;;;;;;17.23;9.65;;;;;;;2.96;100.00;94377.03;5064003;28;20074;-69
2021/11/26 07:43:06;;;;;;;22.33;10.98;;;;;;;2.99;100.00;94386.13;5065307;28;20116;-69
2021/11/26 07:45:33;;;;;;;19.70;9.75;;;;;;;3.00;100.00;94392.88;5059695;28;20048;-68
2021/11/26 07:48:00;;;;;;;29.58;12.73;;;;;;;2.93;100.00;94377.41;5063520;28;20044;-69
2021/11/26 07:50:28;;;;;;;33.78;15.40;;;;;;;3.07;100.00;94385.97;5063076;28;20067;-69
2021/11/26 07:52:55;;;;;;;31.83;16.30;;;;;;;3.04;100.00;94369.16;5062928;28;20068;-69
2021/11/26 07:55:23;;;;;;;20.70;10.73;;;;;;;3.04;100.00;94352.91;5065157;28;20477;-69
2021/11/26 07:57:50;;;;;;;21.45;11.15;;;;;;;3.04;100.00;94364.00;5065552;28;20048;-69
2021/11/26 08:00:17;;;;;;;30.33;13.05;;;;;;;3.02;100.00;94370.31;5063609;28;20698;-69
2021/11/26 08:02:44;;;;;;;19.55;9.60;;;;;;;2.90;100.00;94354.69;5065027;28;20036;-69
2021/11/26 08:05:12;;;;;;;29.58;13.75;;;;;;;2.84;100.00;94332.28;5063501;28;20060;-69
2021/11/26 08:07:39;;;;;;;26.38;12.20;;;;;;;2.98;100.00;94351.13;5064746;28;20113;-69
2021/11/26 08:10:09;;;;;;;22.33;11.63;;;;;;;3.01;100.00;94345.59;5064213;28;20052;-70
2021/11/26 08:12:38;;;;;;;34.85;13.30;;;;;;;3.04;100.00;94347.75;5063029;28;20071;-70
2021/11/26 08:15:08;;;;;;;22.63;10.63;;;;;;;2.95;100.00;94334.28;5069099;28;20082;-69
2021/11/26 08:17:35;;;;;;;21.20;9.90;;;;;;;2.88;100.00;94323.19;5085606;28;20424;-70
2021/11/26 08:20:04;;;;;;;24.70;11.35;;;;;;;3.03;100.00;94330.75;5077667;28;21801;-70
2021/11/26 08:22:45;;;;;;;28.25;12.20;;;;;;;3.01;100.00;94327.59;5085493;28;20650;-70
2021/11/26 08:25:13;;;;;;;17.42;9.20;;;;;;;2.96;100.00;94317.09;5083848;28;20079;-69
2021/11/26 08:27:40;;;;;;;20.27;8.95;;;;;;;2.96;100.00;94314.53;5085243;28;20047;-69
2021/11/26 08:30:08;;;;;;;27.13;10.75;;;;;;;2.83;100.00;94295.50;5092047;28;20045;-69
2021/11/26 08:32:36;;;;;;;21.83;11.02;;;;;;;3.00;100.00;94305.41;5084603;28;20185;-69
2021/11/26 08:35:03;;;;;;;15.13;8.55;;;;;;;3.13;100.00;94320.06;5085256;28;20036;-70
2021/11/26 08:37:31;;;;;;;20.95;8.23;;;;;;;3.19;100.00;94314.94;5072801;28;20130;-70
2021/11/26 08:39:58;;;;;;;12.43;7.15;;;;;;;3.14;99.36;94322.44;5089555;28;20070;-69
2021/11/26 08:42:25;;;;;;;17.73;8.00;;;;;;;3.10;99.53;94325.59;5085696;28;20502;-70
2021/11/26 08:44:53;;;;;;;20.27;10.23;;;;;;;3.13;100.00;94326.00;5091475;28;20068;-69
2021/11/26 08:47:20;;;;;;;20.50;10.02;;;;;;;3.09;99.57;94319.66;5089701;28;20485;-70
2021/11/26 08:49:48;;;;;;;24.20;12.15;;;;;;;3.18;99.82;94328.78;5088880;28;20136;-70
2021/11/26 08:52:15;;;;;;;26.27;11.70;;;;;;;3.24;99.92;94312.56;5077438;28;20039;-69
2021/11/26 08:54:43;;;;;;;15.65;8.82;;;;;;;3.16;99.31;94294.72;5092154;28;20040;-69
2021/11/26 08:57:11;;;;;;;21.25;9.43;;;;;;;3.16;98.96;94276.72;5096584;28;20039;-69
2021/11/26 08:59:38;;;;;;;21.38;10.25;;;;;;;3.08;99.74;94258.91;5089290;28;20055;-69
2021/11/26 09:02:05;;;;;;;20.40;8.65;;;;;;;3.13;99.69;94248.78;5086475;28;20040;-69
2021/11/26 09:04:32;;;;;;;26.17;9.27;;;;;;;3.09;100.00;94232.19;5082549;28;20444;-69
2021/11/26 09:06:59;;;;;;;12.13;6.10;;;;;;;3.08;100.00;94194.59;5073801;28;20556;-69
2021/11/26 09:09:26;;;;;;;14.82;6.95;;;;;;;3.15;100.00;94154.22;5091735;28;20040;-69
2021/11/26 09:11:53;;;;;;;13.40;6.32;;;;;;;3.08;100.00;94138.00;5086588;28;20040;-69
2021/11/26 09:14:21;;;;;;;15.02;6.78;;;;;;;3.12;100.00;94149.44;5086654;28;20044;-69
2021/11/26 09:16:48;;;;;;;15.73;7.93;;;;;;;3.11;100.00;94135.00;5089282;28;20067;-69
2021/11/26 09:19:14;;;;;;;13.27;8.00;;;;;;;3.22;100.00;94129.25;5091497;28;20047;-69
2021/11/26 09:21:42;;;;;;;19.02;6.55;;;;;;;3.14;100.00;94101.16;5088161;28;20577;-69
2021/11/26 09:24:09;;;;;;;14.80;7.47;;;;;;;3.23;100.00;94135.97;5086805;28;20036;-69
2021/11/26 09:26:37;;;;;;;16.73;8.00;;;;;;;3.21;100.00;94114.78;5075942;28;20047;-69
2021/11/26 09:29:05;;;;;;;21.10;8.70;;;;;;;3.25;100.00;94126.25;5095304;28;20059;-69
2021/11/26 09:31:32;;;;;;;21.17;10.23;;;;;;;3.27;100.00;94105.47;5085944;28;20044;-69
2021/11/26 09:34:01;;;;;;;22.80;7.13;;;;;;;3.33;100.00;94114.16;5085399;28;20618;-69
2021/11/26 09:36:29;;;;;;;19.15;7.60;;;;;;;3.30;99.96;94101.72;5089605;28;20043;-69
2021/11/26 09:38:56;;;;;;;14.52;6.90;;;;;;;3.33;99.79;94078.13;5095093;28;20060;-69
2021/11/26 09:41:23;;;;;;;15.57;6.28;;;;;;;3.32;99.98;94058.53;5075671;28;20167;-69
2021/11/26 09:44:02;;;;;;;13.90;6.60;;;;;;;3.42;99.52;94066.59;5091059;28;20043;-69
2021/11/26 09:46:37;;;;;;;14.90;8.07;;;;;;;3.37;98.93;94069.00;5078251;28;20044;-69
2021/11/26 09:49:06;;;;;;;13.65;6.80;;;;;;;3.38;99.43;94061.06;5074022;28;20040;-70
2021/11/26 09:51:34;;;;;;;10.75;6.43;;;;;;;3.51;97.86;94056.84;5087744;28;20460;-70
2021/11/26 09:54:01;;;;;;;15.77;7.68;;;;;;;3.43;98.12;94027.78;5085536;28;20039;-69
2021/11/26 09:56:28;;;;;;;13.27;7.07;;;;;;;3.45;97.15;94038.66;5089184;28;20119;-70
2021/11/26 09:58:55;;;;;;;9.38;5.75;;;;;;;3.44;97.52;94046.59;5094940;28;20039;-69
2021/11/26 10:01:22;;;;;;;10.32;6.72;;;;;;;3.54;97.70;94044.34;5092174;28;20040;-70
2021/11/26 10:03:51;;;;;;;13.10;7.50;;;;;;;3.51;97.28;94024.19;5090791;28;20059;-70
2021/11/26 10:06:21;;;;;;;15.43;7.93;;;;;;;3.56;98.55;94037.22;5084522;28;20153;-70
2021/11/26 10:09:01;;;;;;;12.32;7.10;;;;;;;3.56;97.35;94008.88;5091716;28;20047;-70
2021/11/26 10:11:30;;;;;;;16.02;7.60;;;;;;;3.53;98.25;93985.34;5065338;28;20048;-70
2021/11/26 10:13:57;;;;;;;18.70;6.88;;;;;;;3.57;97.41;93997.59;5086736;28;20043;-70
2021/11/26 10:16:52;;;;;;;15.60;7.63;;;;;;;3.51;97.76;93998.44;5090799;28;20062;-70
2021/11/26 10:19:37;;;;;;;12.05;7.18;;;;;;;3.40;97.30;93979.31;5082325;28;20044;-70
2021/11/26 10:22:26;;;;;;;12.65;6.95;;;;;;;3.42;97.03;93974.72;5088834;28;20044;-69
2021/11/26 10:25:19;;;;;;;9.65;5.80;;;;;;;3.50;98.20;93960.81;5082852;28;20112;-69
2021/11/26 10:27:58;;;;;;;14.15;6.32;;;;;;;3.54;97.38;93982.56;5094736;28;20524;-70
2021/11/26 10:30:38;;;;;;;13.95;7.45;;;;;;;3.65;97.89;94006.84;5092381;28;20584;-70
2021/11/26 10:33:24;;;;;;;10.50;6.10;;;;;;;3.58;97.73;94011.25;5090791;28;20502;-69
2021/11/26 10:36:01;;;;;;;12.40;6.50;;;;;;;3.63;96.59;94004.47;5082034;28;20045;-69
2021/11/26 10:38:30;;;;;;;11.10;6.13;;;;;;;3.63;96.75;93986.47;5094112;28;20058;-70
2021/11/26 10:41:03;;;;;;;15.32;7.25;;;;;;;3.73;95.99;93977.50;5094221;28;20046;-70
2021/11/26 10:43:41;;;;;;;12.98;6.35;;;;;;;3.62;95.05;93959.16;5092655;28;20119;-69
2021/11/26 10:46:38;;;;;;;12.45;6.55;;;;;;;3.73;96.24;93959.47;5094618;28;20569;-70
2021/11/26 10:51:54;;;;;;;10.10;6.60;;;;;;;3.48;96.17;93983.41;5074260;28;20127;-70
2021/11/26 10:59:53;;;;;;;10.20;6.40;;;;;;;3.29;96.36;93999.75;5096314;28;20504;-69
2021/11/26 11:02:30;;;;;;;17.60;9.38;;;;;;;3.41;97.28;93992.94;5089732;28;20044;-69
2021/11/26 11:04:57;;;;;;;17.98;9.20;;;;;;;3.49;97.28;93995.25;5100408;28;20074;-70
2021/11/26 11:07:24;;;;;;;17.20;8.52;;;;;;;3.48;96.58;93998.84;5098385;28;20408;-69
2021/11/26 11:09:53;;;;;;;12.05;6.78;;;;;;;3.57;97.18;94000.19;5090595;28;20508;-70
2021/11/26 11:12:30;;;;;;;10.57;6.85;;;;;;;3.55;96.00;93955.84;5087334;28;20115;-69
2021/11/26 11:15:00;;;;;;;18.83;7.95;;;;;;;3.53;96.54;93934.66;5092303;28;20535;-70
2021/11/26 11:17:28;;;;;;;13.18;8.60;;;;;;;3.53;97.25;93919.22;5077212;28;20980;-70
2021/11/26 11:20:00;;;;;;;15.85;8.43;;;;;;;3.73;96.90;93934.50;5094344;28;20988;-70
2021/11/26 11:22:32;;;;;;;13.75;6.20;;;;;;;3.81;96.02;93925.72;5089837;28;20040;-70
2021/11/26 11:24:59;;;;;;;17.00;8.93;;;;;;;3.89;96.06;93917.75;5089038;28;20513;-70
2021/11/26 11:27:26;;;;;;;11.10;5.97;;;;;;;4.00;97.16;93924.78;5067564;28;20071;-70
2021/11/26 11:29:53;;;;;;;11.80;6.80;;;;;;;4.13;96.27;93918.69;5087556;28;20040;-71
2021/11/26 11:32:21;;;;;;;9.70;6.30;;;;;;;4.22;94.97;93926.94;5083387;28;20036;-70
2021/11/26 11:34:48;;;;;;;17.17;5.50;;;;;;;4.27;94.48;93929.69;5084540;28;20036;-70
2021/11/26 11:37:18;;;;;;;19.27;6.90;;;;;;;4.15;95.02;93934.75;5085648;28;20096;-71
2021/11/26 11:39:51;;;;;;;7.63;4.78;;;;;;;4.02;94.66;93927.91;5082934;28;20459;-70
2021/11/26 11:42:25;;;;;;;11.32;6.80;;;;;;;3.93;95.70;93887.97;5088790;28;20066;-70